createdAt,value
2018-12-07T00:01:09.517Z,7.33
2018-12-07T00:03:37.641Z,12.17
2018-12-07T00:06:06.206Z,12.17
2018-12-07T00:08:34.550Z,5.47
2018-12-07T00:11:03.718Z,9.10
2018-12-07T00:13:32.329Z,9.77
2018-12-07T00:16:00.764Z,12.23
2018-12-07T00:18:29.089Z,13.00
2018-12-07T00:20:57.820Z,6.97
2018-12-07T00:23:26.870Z,7.67
2018-12-07T00:25:55.186Z,11.50
2018-12-07T00:28:23.804Z,9.63
2018-12-07T00:30:53.281Z,11.97
2018-12-07T00:33:21.705Z,9.50
2018-12-07T00:35:51.483Z,10.27
2018-12-07T00:38:19.593Z,10.73
2018-12-07T00:40:49.265Z,9.27
2018-12-07T00:43:18.421Z,11.10
2018-12-07T00:45:47.458Z,14.57
2018-12-07T00:48:16.536Z,9.93
2018-12-07T00:50:44.959Z,16.63
2018-12-07T00:53:14.088Z,14.40
2018-12-07T00:55:43.138Z,13.23
2018-12-07T00:58:11.547Z,16.47
2018-12-07T01:00:40.508Z,16.23
2018-12-07T01:03:09.754Z,12.77
2018-12-07T01:05:38.689Z,19.07
2018-12-07T01:08:07.856Z,17.40
2018-12-07T01:10:36.376Z,16.97
2018-12-07T01:13:05.358Z,17.03
2018-12-07T01:15:34.956Z,15.53
2018-12-07T01:18:04.146Z,16.70
2018-12-07T01:20:32.675Z,21.20
2018-12-07T01:23:00.778Z,14.93
2018-12-07T01:25:29.075Z,15.50
2018-12-07T01:27:57.700Z,14.73
2018-12-07T01:30:26.680Z,14.33
2018-12-07T01:32:55.511Z,15.27
2018-12-07T01:35:25.299Z,13.03
2018-12-07T01:37:53.803Z,11.70
2018-12-07T01:40:21.904Z,15.23
2018-12-07T01:42:51.081Z,11.63
2018-12-07T01:45:19.201Z,14.30
2018-12-07T01:47:47.706Z,12.03
2018-12-07T01:50:15.846Z,13.67
2018-12-07T01:52:44.962Z,10.23
2018-12-07T01:55:15.036Z,13.80
2018-12-07T01:57:43.324Z,15.20
2018-12-07T02:00:11.921Z,14.50
2018-12-07T02:02:41.158Z,16.87
2018-12-07T02:05:12.635Z,17.03
2018-12-07T02:07:41.361Z,18.20
2018-12-07T02:10:09.768Z,17.50
2018-12-07T02:12:38.289Z,20.30
2018-12-07T02:15:06.710Z,16.73
2018-12-07T02:17:36.802Z,20.83
2018-12-07T02:20:05.932Z,18.00
2018-12-07T02:22:34.898Z,19.47
2018-12-07T02:25:04.657Z,15.63
2018-12-07T02:27:36.001Z,15.90
2018-12-07T02:30:05.602Z,16.90
2018-12-07T02:32:34.934Z,16.13
2018-12-07T02:35:04.725Z,17.87
2018-12-07T02:37:32.956Z,15.37
2018-12-07T02:40:05.648Z,16.13
2018-12-07T02:42:34.696Z,18.50
2018-12-07T02:45:04.785Z,17.47
2018-12-07T02:47:33.425Z,17.77
2018-12-07T02:50:01.936Z,17.63
2018-12-07T02:52:30.252Z,12.87
2018-12-07T02:54:58.792Z,17.17
2018-12-07T02:57:27.502Z,15.33
2018-12-07T02:59:57.495Z,16.40
2018-12-07T03:02:26.030Z,9.53
2018-12-07T03:04:55.291Z,14.27
2018-12-07T03:07:23.820Z,15.37
2018-12-07T03:09:53.178Z,12.20
2018-12-07T03:12:23.481Z,15.97
2018-12-07T03:14:52.006Z,13.13
2018-12-07T03:17:20.426Z,12.67
2018-12-07T03:19:48.847Z,12.97
2018-12-07T03:22:17.374Z,9.13
2018-12-07T03:24:45.716Z,10.30
2018-12-07T03:27:14.313Z,13.77
2018-12-07T03:29:43.989Z,14.93
2018-12-07T03:32:13.153Z,13.33
2018-12-07T03:34:42.099Z,18.00
2018-12-07T03:37:11.035Z,14.97
2018-12-07T03:39:45.623Z,12.70
2018-12-07T03:42:14.665Z,15.70
2018-12-07T03:44:44.654Z,19.70
2018-12-07T03:47:15.066Z,13.60
2018-12-07T03:49:43.585Z,12.33
2018-12-07T03:52:12.588Z,7.47
2018-12-07T03:54:42.703Z,9.10
2018-12-07T03:57:11.772Z,12.83
2018-12-07T03:59:41.238Z,7.83
2018-12-07T04:02:10.032Z,13.73
2018-12-07T04:04:39.015Z,13.90
2018-12-07T04:07:08.272Z,10.57
2018-12-07T04:09:36.803Z,6.53
2018-12-07T04:12:05.224Z,8.37
2018-12-07T04:14:34.266Z,9.50
2018-12-07T04:17:04.396Z,13.20
2018-12-07T04:19:34.457Z,9.07
2018-12-07T04:22:03.400Z,10.33
2018-12-07T04:24:31.926Z,10.73
2018-12-07T04:26:59.958Z,11.63
2018-12-07T04:29:29.085Z,10.37
2018-12-07T04:31:58.026Z,10.83
2018-12-07T04:34:27.169Z,11.87
2018-12-07T04:36:55.704Z,9.17
2018-12-07T04:39:24.860Z,11.10
2018-12-07T04:41:55.372Z,14.17
2018-12-07T04:44:24.521Z,14.40
2018-12-07T04:46:54.774Z,12.77
2018-12-07T04:49:23.061Z,15.30
2018-12-07T04:51:52.184Z,15.83
2018-12-07T04:54:21.443Z,13.70
2018-12-07T04:56:49.868Z,12.70
2018-12-07T04:59:19.422Z,12.90
2018-12-07T05:01:49.429Z,10.67
2018-12-07T05:04:21.550Z,11.00
2018-12-07T05:06:50.237Z,11.17
2018-12-07T05:09:19.595Z,9.83
2018-12-07T05:11:48.641Z,12.90
2018-12-07T05:14:17.898Z,9.97
2018-12-07T05:16:46.841Z,11.90
2018-12-07T05:19:15.067Z,9.53
2018-12-07T05:21:44.621Z,10.33
2018-12-07T05:24:13.673Z,9.33
2018-12-07T05:26:42.727Z,10.13
2018-12-07T05:29:11.168Z,13.93
2018-12-07T05:31:39.665Z,9.10
2018-12-07T05:34:07.886Z,25.93
2018-12-07T05:36:36.514Z,12.50
2018-12-07T05:39:07.543Z,10.80
2018-12-07T05:41:36.693Z,14.67
2018-12-07T05:44:05.522Z,12.83
2018-12-07T05:46:33.953Z,11.30
2018-12-07T05:49:03.115Z,10.23
2018-12-07T05:51:32.257Z,11.57
2018-12-07T05:54:00.548Z,12.17
2018-12-07T05:56:28.658Z,9.83
2018-12-07T05:58:59.952Z,10.13
2018-12-07T06:01:28.141Z,13.00
2018-12-07T06:03:58.018Z,8.70
2018-12-07T06:06:26.549Z,8.97
2018-12-07T06:08:55.593Z,8.00
2018-12-07T06:11:26.421Z,11.47
2018-12-07T06:13:56.611Z,11.20
2018-12-07T06:16:25.658Z,10.43
2018-12-07T06:18:54.281Z,10.50
2018-12-07T06:21:22.822Z,11.07
2018-12-07T06:23:52.399Z,13.30
2018-12-07T06:26:21.541Z,11.73
2018-12-07T06:28:50.287Z,13.70
2018-12-07T06:31:20.585Z,10.93
2018-12-07T06:33:49.102Z,12.17
2018-12-07T06:36:17.624Z,12.00
2018-12-07T06:38:45.906Z,12.20
2018-12-07T06:41:14.112Z,10.80
2018-12-07T06:43:44.455Z,16.27
2018-12-07T06:46:15.375Z,9.30
2018-12-07T06:48:45.788Z,12.70
2018-12-07T06:51:14.836Z,9.57
2018-12-07T06:53:43.884Z,10.40
2018-12-07T06:56:13.551Z,9.23
2018-12-07T06:58:42.007Z,9.03
2018-12-07T07:01:11.849Z,10.53
2018-12-07T07:03:41.352Z,13.67
2018-12-07T07:06:09.833Z,11.60
2018-12-07T07:08:38.484Z,12.30
2018-12-07T07:11:08.993Z,13.23
2018-12-07T07:13:37.774Z,13.30
2018-12-07T07:16:07.829Z,16.70
2018-12-07T07:18:36.344Z,14.23
2018-12-07T07:21:04.865Z,15.33
2018-12-07T07:23:33.340Z,14.80
2018-12-07T07:26:01.933Z,13.57
2018-12-07T07:28:31.178Z,14.47
2018-12-07T07:31:00.430Z,14.83
2018-12-07T07:33:30.010Z,15.37
2018-12-07T07:35:58.238Z,11.43
2018-12-07T07:38:27.689Z,9.73
2018-12-07T07:40:56.521Z,11.53
2018-12-07T07:43:25.462Z,10.70
2018-12-07T07:45:54.165Z,14.60
2018-12-07T07:48:24.517Z,12.50
2018-12-07T07:50:52.793Z,11.67
2018-12-07T07:53:21.553Z,13.40
2018-12-07T07:55:51.334Z,11.43
2018-12-07T07:58:20.805Z,11.83
2018-12-07T08:00:49.225Z,12.03
2018-12-07T08:03:19.310Z,9.43
2018-12-07T08:05:47.620Z,10.33
2018-12-07T08:08:16.499Z,10.93
2018-12-07T08:10:45.329Z,8.17
2018-12-07T08:13:13.727Z,13.73
2018-12-07T08:15:42.682Z,9.87
2018-12-07T08:18:12.244Z,8.83
2018-12-07T08:20:40.765Z,9.73
2018-12-07T08:23:14.947Z,9.27
2018-12-07T08:25:42.934Z,11.47
2018-12-07T08:28:12.197Z,12.07
2018-12-07T08:30:42.019Z,8.67
2018-12-07T08:33:10.601Z,11.37
2018-12-07T08:35:39.691Z,11.57
2018-12-07T08:38:09.422Z,10.00
2018-12-07T08:40:39.935Z,11.83
2018-12-07T08:43:08.157Z,8.83
2018-12-07T08:45:36.779Z,9.63
2018-12-07T08:48:05.060Z,8.43
2018-12-07T08:50:35.186Z,6.57
2018-12-07T08:53:05.484Z,5.93
2018-12-07T08:55:33.689Z,10.97
2018-12-07T08:58:03.370Z,7.27
2018-12-07T09:00:31.985Z,4.93
2018-12-07T09:03:02.517Z,7.23
2018-12-07T09:05:32.404Z,7.20
2018-12-07T09:08:03.025Z,8.43
2018-12-07T09:10:32.792Z,5.13
2018-12-07T09:13:01.845Z,6.67
2018-12-07T09:15:30.161Z,7.03
2018-12-07T09:18:00.541Z,5.67
2018-12-07T09:20:29.084Z,5.07
2018-12-07T09:22:57.733Z,4.67
2018-12-07T09:25:27.709Z,4.93
2018-12-07T09:27:57.748Z,3.80
2018-12-07T09:30:27.266Z,5.50
2018-12-07T09:32:56.573Z,5.23
2018-12-07T09:35:26.398Z,4.53
2018-12-07T09:37:56.819Z,4.00
2018-12-07T09:40:25.859Z,4.23
2018-12-07T09:42:54.489Z,3.63
2018-12-07T09:45:22.996Z,3.87
2018-12-07T09:47:51.076Z,5.50
2018-12-07T09:50:19.858Z,3.43
2018-12-07T09:52:49.230Z,3.53
2018-12-07T09:55:17.744Z,4.37
2018-12-07T09:57:46.687Z,9.53
2018-12-07T10:00:15.667Z,3.40
2018-12-07T10:02:43.808Z,3.90
2018-12-07T10:05:12.266Z,3.73
2018-12-07T10:07:41.625Z,4.20
2018-12-07T10:10:12.762Z,3.50
2018-12-07T10:12:42.714Z,6.63
2018-12-07T10:15:11.068Z,4.10
2018-12-07T10:17:40.316Z,4.17
2018-12-07T10:20:08.556Z,2.60
2018-12-07T10:22:37.981Z,5.17
2018-12-07T10:25:06.620Z,4.20
2018-12-07T10:27:35.584Z,4.17
2018-12-07T10:30:04.936Z,4.80
2018-12-07T10:32:35.352Z,6.07
2018-12-07T10:35:03.952Z,3.10
2018-12-07T10:37:33.953Z,3.67
2018-12-07T10:40:02.934Z,4.00
2018-12-07T10:42:31.061Z,4.93
2018-12-07T10:45:00.549Z,2.87
2018-12-07T10:47:28.752Z,2.70
2018-12-07T10:49:57.648Z,4.70
2018-12-07T10:52:26.366Z,5.50
2018-12-07T10:54:54.668Z,2.10
2018-12-07T10:57:23.308Z,2.90
2018-12-07T10:59:53.203Z,2.50
2018-12-07T11:05:29.834Z,2.17
2018-12-07T11:08:04.629Z,3.47
2018-12-07T11:10:38.615Z,2.93
2018-12-07T11:16:09.484Z,1.63
2018-12-07T11:18:43.326Z,2.13
2018-12-07T11:21:18.545Z,2.33
2018-12-07T11:23:52.390Z,2.47
2018-12-07T11:26:27.080Z,2.23
2018-12-07T11:29:02.290Z,2.70
2018-12-07T11:31:36.706Z,2.77
2018-12-07T11:34:06.629Z,1.40
2018-12-07T11:36:35.180Z,2.43
2018-12-07T11:39:07.045Z,4.70
2018-12-07T11:41:35.989Z,2.27
2018-12-07T11:44:05.664Z,1.63
2018-12-07T11:46:34.607Z,3.80
2018-12-07T11:49:03.696Z,1.97
2018-12-07T11:51:32.711Z,3.50
2018-12-07T11:54:00.809Z,3.10
2018-12-07T11:56:29.833Z,1.13
2018-12-07T11:58:58.041Z,2.20
2018-12-07T12:01:28.270Z,2.23
2018-12-07T12:03:56.353Z,2.07
2018-12-07T12:06:25.624Z,1.10
2018-12-07T12:08:54.380Z,2.33
2018-12-07T12:11:23.311Z,1.30
2018-12-07T12:13:52.047Z,1.83
2018-12-07T12:16:20.657Z,1.30
2018-12-07T12:18:48.894Z,1.53
2018-12-07T12:21:18.034Z,2.43
2018-12-07T12:23:53.386Z,1.27
2018-12-07T12:26:18.076Z,1.23
2018-12-07T12:28:46.920Z,1.07
2018-12-07T12:31:15.475Z,1.40
2018-12-07T12:33:45.673Z,1.27
2018-12-07T12:36:17.139Z,1.20
2018-12-07T12:38:45.234Z,1.20
2018-12-07T12:41:15.125Z,1.27
2018-12-07T12:43:43.752Z,2.07
2018-12-07T12:46:11.781Z,1.40
2018-12-07T12:48:40.604Z,1.20
2018-12-07T12:51:09.581Z,1.40
2018-12-07T12:53:37.693Z,1.50
2018-12-07T12:56:06.903Z,2.17
2018-12-07T12:58:35.849Z,1.87
2018-12-07T13:01:04.104Z,2.03
2018-12-07T13:03:32.768Z,2.67
2018-12-07T13:06:02.652Z,3.20
2018-12-07T13:08:31.777Z,1.53
2018-12-07T13:11:00.515Z,1.20
2018-12-07T13:13:29.932Z,2.20
2018-12-07T13:15:59.706Z,2.40
2018-12-07T13:18:30.322Z,1.77
2018-12-07T13:20:59.889Z,1.70
2018-12-07T13:23:28.783Z,6.10
2018-12-07T13:25:57.258Z,3.20
2018-12-07T13:28:25.656Z,3.70
2018-12-07T13:30:54.624Z,2.07
2018-12-07T13:33:24.482Z,1.57
2018-12-07T13:35:54.416Z,1.93
2018-12-07T13:38:23.123Z,1.80
2018-12-07T13:40:53.650Z,1.23
2018-12-07T13:43:22.686Z,3.43
2018-12-07T13:45:51.421Z,1.20
2018-12-07T13:48:20.595Z,1.17
2018-12-07T13:50:49.270Z,2.57
2018-12-07T13:53:17.753Z,3.30
2018-12-07T13:55:45.950Z,1.50
2018-12-07T13:58:14.993Z,1.37
2018-12-07T14:00:45.314Z,1.77
2018-12-07T14:03:15.019Z,4.47
2018-12-07T14:05:44.475Z,3.43
2018-12-07T14:08:13.965Z,4.40
2018-12-07T14:10:43.883Z,7.77
2018-12-07T14:13:12.587Z,4.47
2018-12-07T14:15:41.118Z,8.27
2018-12-07T14:18:09.692Z,6.90
2018-12-07T14:20:38.086Z,8.77
2018-12-07T14:23:07.780Z,6.47
2018-12-07T14:25:36.921Z,6.53
2018-12-07T14:28:06.045Z,5.77
2018-12-07T14:30:36.013Z,2.23
2018-12-07T14:33:06.220Z,3.03
2018-12-07T14:35:35.056Z,1.63
2018-12-07T14:38:04.966Z,1.93
2018-12-07T14:40:33.196Z,2.13
2018-12-07T14:43:03.965Z,3.93
2018-12-07T14:45:32.217Z,4.07
2018-12-07T14:48:02.272Z,1.70
2018-12-07T14:50:30.851Z,4.43
2018-12-07T14:52:59.278Z,1.87
2018-12-07T14:55:29.009Z,2.87
2018-12-07T14:57:58.144Z,2.03
2018-12-07T15:00:29.548Z,1.13
2018-12-07T15:02:58.720Z,2.60
2018-12-07T15:05:27.763Z,4.00
2018-12-07T15:07:56.807Z,4.20
2018-12-07T15:10:27.623Z,3.20
2018-12-07T15:12:55.968Z,2.17
2018-12-07T15:15:26.071Z,2.07
2018-12-07T15:17:54.750Z,2.03
2018-12-07T15:20:23.079Z,2.77
2018-12-07T15:22:52.152Z,1.73
2018-12-07T15:25:21.187Z,2.30
2018-12-07T15:27:50.351Z,4.10
2018-12-07T15:30:18.728Z,2.97
2018-12-07T15:32:47.211Z,4.03
2018-12-07T15:35:16.023Z,4.80
2018-12-07T15:37:45.936Z,6.27
2018-12-07T15:40:14.173Z,4.07
2018-12-07T15:42:42.917Z,4.80
2018-12-07T15:45:11.746Z,3.73
2018-12-07T15:47:40.823Z,2.40
2018-12-07T15:50:09.533Z,4.63
2018-12-07T15:52:38.563Z,3.00
2018-12-07T15:55:07.201Z,3.93
2018-12-07T15:57:35.943Z,2.40
2018-12-07T16:00:06.239Z,6.53
2018-12-07T16:02:36.010Z,5.53
2018-12-07T16:05:06.061Z,4.10
2018-12-07T16:07:34.716Z,7.07
2018-12-07T16:10:04.686Z,2.57
2018-12-07T16:12:34.182Z,2.07
2018-12-07T16:15:02.719Z,8.47
2018-12-07T16:17:31.581Z,3.00
2018-12-07T16:20:00.473Z,3.90
2018-12-07T16:22:29.125Z,3.07
2018-12-07T16:24:57.999Z,2.87
2018-12-07T16:27:26.540Z,1.87
2018-12-07T16:29:55.035Z,2.30
2018-12-07T16:32:23.777Z,3.17
2018-12-07T16:34:52.304Z,2.20
2018-12-07T16:37:21.687Z,2.60
2018-12-07T16:39:50.367Z,2.63
2018-12-07T16:42:20.651Z,1.70
2018-12-07T16:44:49.277Z,2.80
2018-12-07T16:47:17.756Z,3.00
2018-12-07T16:49:46.003Z,6.60
2018-12-07T16:52:15.253Z,5.27
2018-12-07T16:54:44.156Z,3.97
2018-12-07T16:57:12.897Z,4.10
2018-12-07T16:59:42.324Z,2.07
2018-12-07T17:02:11.630Z,3.60
2018-12-07T17:04:40.880Z,2.73
2018-12-07T17:07:10.191Z,2.63
2018-12-07T17:09:39.254Z,2.40
2018-12-07T17:12:08.773Z,1.70
2018-12-07T17:14:37.233Z,3.03
2018-12-07T17:17:06.385Z,2.97
2018-12-07T17:19:34.999Z,2.87
2018-12-07T17:22:03.585Z,2.87
2018-12-07T17:24:32.564Z,2.87
2018-12-07T17:27:01.189Z,3.13
2018-12-07T17:29:31.783Z,4.97
2018-12-07T17:32:01.153Z,6.27
2018-12-07T17:34:30.725Z,3.37
2018-12-07T17:37:00.172Z,4.20
2018-12-07T17:39:28.249Z,5.37
2018-12-07T17:41:57.258Z,4.20
2018-12-07T17:44:26.090Z,3.90
2018-12-07T17:46:54.602Z,4.00
2018-12-07T17:49:22.877Z,6.90
2018-12-07T17:51:51.650Z,2.83
2018-12-07T17:54:20.479Z,4.30
2018-12-07T17:56:50.743Z,5.10
2018-12-07T17:59:20.120Z,4.30
2018-12-07T18:01:48.661Z,2.83
2018-12-07T18:04:17.611Z,4.07
2018-12-07T18:06:46.302Z,4.43
2018-12-07T18:09:15.001Z,5.50
2018-12-07T18:11:43.918Z,4.30
2018-12-07T18:14:12.470Z,7.07
2018-12-07T18:16:41.067Z,5.57
2018-12-07T18:19:11.406Z,8.87
2018-12-07T18:21:40.400Z,6.17
2018-12-07T18:24:09.518Z,7.90
2018-12-07T18:26:39.067Z,7.83
2018-12-07T18:29:08.336Z,9.93
2018-12-07T18:31:37.568Z,5.67
2018-12-07T18:34:06.840Z,7.20
2018-12-07T18:36:35.883Z,7.53
2018-12-07T18:39:06.207Z,7.13
2018-12-07T18:41:34.314Z,7.30
2018-12-07T18:44:03.735Z,9.10
2018-12-07T18:46:32.419Z,6.00
2018-12-07T18:49:01.070Z,9.23
2018-12-07T18:51:30.153Z,8.40
2018-12-07T18:53:58.690Z,9.67
2018-12-07T18:56:27.858Z,11.20
2018-12-07T18:58:56.545Z,10.20
2018-12-07T19:01:25.123Z,10.17
2018-12-07T19:03:53.443Z,8.70
2018-12-07T19:06:22.253Z,7.63
2018-12-07T19:08:50.872Z,6.90
2018-12-07T19:11:20.069Z,6.17
2018-12-07T19:13:50.384Z,5.57
2018-12-07T19:16:19.720Z,8.20
2018-12-07T19:18:49.164Z,6.40
2018-12-07T19:21:18.165Z,5.80
2018-12-07T19:23:46.958Z,9.70
2018-12-07T19:26:15.911Z,9.87
2018-12-07T19:28:44.440Z,8.33
2018-12-07T19:31:12.863Z,9.37
2018-12-07T19:33:42.945Z,7.03
2018-12-07T19:36:11.755Z,11.40
2018-12-07T19:38:40.864Z,11.13
2018-12-07T19:41:09.993Z,10.90
2018-12-07T19:43:38.560Z,9.23
2018-12-07T19:46:06.984Z,11.50
2018-12-07T19:48:35.746Z,7.70
2018-12-07T19:51:07.648Z,13.20
2018-12-07T19:53:36.541Z,11.53
2018-12-07T19:56:05.507Z,12.43
2018-12-07T19:58:34.123Z,8.70
2018-12-07T20:01:03.948Z,17.83
2018-12-07T20:03:32.795Z,13.10
2018-12-07T20:06:01.930Z,11.67
2018-12-07T20:08:30.947Z,9.63
2018-12-07T20:11:00.617Z,11.33
2018-12-07T20:13:29.827Z,11.53
2018-12-07T20:15:58.325Z,10.33
2018-12-07T20:18:26.971Z,9.07
2018-12-07T20:20:55.173Z,9.50
2018-12-07T20:23:23.768Z,14.70
2018-12-07T20:25:52.514Z,9.77
2018-12-07T20:28:22.411Z,10.80
2018-12-07T20:30:51.148Z,10.83
2018-12-07T20:33:21.331Z,12.80
2018-12-07T20:35:52.054Z,10.10
2018-12-07T20:38:20.276Z,10.10
2018-12-07T20:40:49.913Z,10.27
2018-12-07T20:43:18.458Z,7.53
2018-12-07T20:45:47.937Z,11.50
2018-12-07T20:48:16.576Z,12.53
2018-12-07T20:50:45.175Z,7.30
2018-12-07T20:53:15.281Z,7.77
2018-12-07T20:55:45.234Z,12.53
2018-12-07T20:58:14.434Z,16.57
2018-12-07T21:00:43.009Z,11.70
2018-12-07T21:03:11.430Z,8.60
2018-12-07T21:09:23.702Z,11.33
2018-12-07T21:11:57.065Z,9.70
2018-12-07T21:14:26.080Z,17.23
2018-12-07T21:16:59.639Z,13.07
2018-12-07T21:19:28.607Z,16.10
2018-12-07T21:21:57.248Z,14.90
2018-12-07T21:24:26.217Z,14.40
2018-12-07T21:26:56.224Z,14.73
2018-12-07T21:29:24.758Z,17.00
2018-12-07T21:31:56.658Z,24.70
2018-12-07T21:37:23.988Z,17.53
2018-12-07T21:39:54.791Z,13.17
2018-12-07T21:42:23.682Z,17.20
2018-12-07T21:44:52.944Z,16.13
2018-12-07T21:47:24.989Z,14.33
2018-12-07T21:49:54.032Z,18.47
2018-12-07T21:52:22.525Z,14.60
2018-12-07T21:54:51.068Z,11.67
2018-12-07T21:57:19.821Z,16.87
2018-12-07T21:59:48.438Z,14.43
2018-12-07T22:02:17.667Z,9.53
2018-12-07T22:04:48.664Z,14.67
2018-12-07T22:07:17.018Z,13.90
2018-12-07T22:09:45.924Z,12.23
2018-12-07T22:12:15.168Z,10.40
2018-12-07T22:14:45.092Z,11.93
2018-12-07T22:17:13.861Z,6.20
2018-12-07T22:19:42.061Z,8.33
2018-12-07T22:22:11.062Z,8.27
2018-12-07T22:24:39.666Z,3.47
2018-12-07T22:27:07.897Z,5.47
2018-12-07T22:29:37.796Z,6.60
2018-12-07T22:32:07.893Z,5.73
2018-12-07T22:34:36.678Z,7.40
2018-12-07T22:37:05.378Z,5.87
2018-12-07T22:39:35.980Z,5.17
2018-12-07T22:42:05.303Z,6.43
2018-12-07T22:44:34.935Z,7.83
2018-12-07T22:47:04.644Z,5.60
2018-12-07T22:49:33.150Z,6.17
2018-12-07T22:52:01.677Z,5.87
2018-12-07T22:54:30.305Z,7.70
2018-12-07T22:56:58.362Z,14.77
2018-12-07T22:59:27.542Z,12.23
2018-12-07T23:01:58.082Z,8.47
2018-12-07T23:04:26.189Z,8.90
2018-12-07T23:06:54.718Z,13.97
2018-12-07T23:09:23.137Z,12.80
2018-12-07T23:11:52.095Z,11.30
2018-12-07T23:14:21.127Z,11.40
2018-12-07T23:16:51.635Z,10.50
2018-12-07T23:19:22.290Z,13.80
2018-12-07T23:21:52.433Z,10.47
2018-12-07T23:24:21.158Z,17.60
2018-12-07T23:26:49.808Z,14.57
2018-12-07T23:29:20.943Z,13.93
2018-12-07T23:31:52.525Z,17.30
2018-12-07T23:34:20.921Z,14.77
2018-12-07T23:36:49.448Z,16.33
2018-12-07T23:39:19.093Z,19.60
2018-12-07T23:41:48.275Z,17.10
2018-12-07T23:44:16.903Z,15.70
2018-12-07T23:46:45.852Z,12.53
2018-12-07T23:49:14.998Z,19.47
2018-12-07T23:51:44.047Z,16.00
2018-12-07T23:54:12.437Z,22.03
2018-12-07T23:56:41.639Z,14.40
2018-12-07T23:59:10.251Z,16.00
